Time;durP1;ratioP1;P1;durP2;ratioP2;P2;SDS_P1;SDS_P2;PMS_P1;PMS_P2;Temp;Humidity;BMP_temperature;BMP_pressure;BME280_temperature;BME280_humidity;BME280_pressure;Samples;Min_cycle;Max_cycle;Signal;HPM_P1;HPM_P2
2022/02/15 00:02:04;;;;;;;11.77;2.70;;;;;;;;;;5070312;28;20852;-63
2022/02/15 00:04:30;;;;;;;11.18;2.90;;;;;;;;;;5077745;28;20089;-64
2022/02/15 00:06:56;;;;;;;5.63;2.47;;;;;;;;;;5076247;28;20127;-63
2022/02/15 00:09:23;;;;;;;14.43;2.97;;;;;;;;;;5073355;28;20082;-64
2022/02/15 00:11:49;;;;;;;11.27;3.00;;;;;;;;;;5077401;28;20056;-63
2022/02/15 00:14:15;;;;;;;13.95;2.78;;;;;;;;;;5075450;28;20452;-63
2022/02/15 00:16:41;;;;;;;12.32;3.10;;;;;;;;;;5073809;28;20040;-63
2022/02/15 00:19:08;;;;;;;13.13;3.08;;;;;;;;;;5063533;28;20033;-64
2022/02/15 00:21:34;;;;;;;9.65;3.38;;;;;;;;;;5064669;28;20047;-63
2022/02/15 00:24:01;;;;;;;11.55;3.50;;;;;;;;;;5064205;28;20459;-63
2022/02/15 00:26:27;;;;;;;10.57;3.78;;;;;;;;;;5061581;28;20117;-63
2022/02/15 00:28:53;;;;;;;11.27;2.80;;;;;;;;;;5064536;28;20052;-62
2022/02/15 00:31:19;;;;;;;10.98;3.80;;;;;;;;;;5064630;28;20173;-62
2022/02/15 00:33:45;;;;;;;13.85;3.03;;;;;;;;;;5063722;28;20048;-62
2022/02/15 00:36:11;;;;;;;8.50;2.70;;;;;;;;;;5063552;28;20040;-62
2022/02/15 00:38:37;;;;;;;9.38;3.20;;;;;;;;;;5064287;28;20190;-62
2022/02/15 00:41:07;;;;;;;14.02;3.50;;;;;;;;;;5064973;28;20591;-62
2022/02/15 00:43:33;;;;;;;12.05;2.92;;;;;;;;;;5063618;28;20650;-63
2022/02/15 00:45:59;;;;;;;8.18;2.80;;;;;;;;;;5060150;28;20087;-62
2022/02/15 00:48:25;;;;;;;11.88;2.85;;;;;;;;;;5064809;28;20033;-62
2022/02/15 00:50:51;;;;;;;12.43;3.00;;;;;;;;;;5064316;28;20754;-62
2022/02/15 00:53:17;;;;;;;13.68;3.47;;;;;;;;;;5063925;28;20825;-62
2022/02/15 00:55:43;;;;;;;16.85;3.72;;;;;;;;;;5057970;28;20060;-62
2022/02/15 00:58:09;;;;;;;12.30;3.40;;;;;;;;;;5052566;28;20044;-62
2022/02/15 01:00:35;;;;;;;12.52;3.70;;;;;;;;;;5057203;28;20126;-62
2022/02/15 01:03:01;;;;;;;11.77;3.53;;;;;;;;;;5062371;28;20676;-62
2022/02/15 01:05:27;;;;;;;20.05;4.10;;;;;;;;;;5063520;28;20609;-62
2022/02/15 01:07:53;;;;;;;13.05;2.72;;;;;;;;;;5063648;28;20078;-62
2022/02/15 01:10:20;;;;;;;16.70;3.38;;;;;;;;;;5063140;28;20572;-62
2022/02/15 01:12:46;;;;;;;11.63;2.92;;;;;;;;;;5063764;28;20043;-62
2022/02/15 01:15:16;;;;;;;15.38;3.17;;;;;;;;;;5059622;28;20028;-63
2022/02/15 01:17:42;;;;;;;11.65;3.33;;;;;;;;;;5063697;28;20543;-63
2022/02/15 01:20:08;;;;;;;10.35;3.50;;;;;;;;;;5063152;28;20048;-62
2022/02/15 01:22:34;;;;;;;16.70;3.05;;;;;;;;;;5063078;28;20158;-63
2022/02/15 01:25:00;;;;;;;12.65;3.25;;;;;;;;;;5060818;28;20790;-63
2022/02/15 01:27:27;;;;;;;11.13;3.30;;;;;;;;;;5063746;28;20143;-63
2022/02/15 01:29:53;;;;;;;14.88;3.00;;;;;;;;;;5062678;28;20117;-63
2022/02/15 01:32:19;;;;;;;10.98;4.07;;;;;;;;;;5062805;28;20075;-63
2022/02/15 01:34:45;;;;;;;18.35;5.20;;;;;;;;;;5061888;28;20028;-63
2022/02/15 01:37:11;;;;;;;20.25;5.15;;;;;;;;;;5062012;28;20094;-62
2022/02/15 01:39:37;;;;;;;21.23;6.50;;;;;;;;;;5063558;28;20033;-62
2022/02/15 01:42:03;;;;;;;22.20;5.85;;;;;;;;;;5063309;28;20036;-62
2022/02/15 01:44:30;;;;;;;10.82;5.38;;;;;;;;;;5060228;28;20121;-61
2022/02/15 01:46:56;;;;;;;18.63;5.93;;;;;;;;;;5061522;28;20048;-62
2022/02/15 01:49:22;;;;;;;20.10;6.60;;;;;;;;;;5063490;28;20033;-62
2022/02/15 01:51:49;;;;;;;18.65;5.82;;;;;;;;;;5063327;28;20127;-63
2022/02/15 01:54:15;;;;;;;15.27;6.03;;;;;;;;;;5059583;28;20036;-63
2022/02/15 01:56:41;;;;;;;15.45;4.47;;;;;;;;;;5060375;28;20755;-63
2022/02/15 01:59:07;;;;;;;;;;;;;;;;;;5063712;28;20028;-64
2022/02/15 02:01:33;;;;;;;13.03;4.77;;;;;;;;;;5061148;28;20439;-62
2022/02/15 02:03:59;;;;;;;10.75;5.45;;;;;;;;;;5060317;28;20048;-63
2022/02/15 02:06:25;;;;;;;11.40;5.18;;;;;;;;;;5062351;28;20045;-63
2022/02/15 02:08:51;;;;;;;15.75;5.53;;;;;;;;;;5061637;28;20036;-63
2022/02/15 02:11:17;;;;;;;12.32;4.90;;;;;;;;;;5054960;28;20029;-63
2022/02/15 02:13:43;;;;;;;20.70;5.10;;;;;;;;;;5062739;28;20107;-62
2022/02/15 02:16:09;;;;;;;10.85;4.78;;;;;;;;;;5055991;28;20131;-64
2022/02/15 02:18:35;;;;;;;15.73;5.55;;;;;;;;;;5061631;28;20043;-64
2022/02/15 02:21:03;;;;;;;20.90;5.07;;;;;;;;;;5062457;28;20131;-64
2022/02/15 02:23:29;;;;;;;16.13;4.88;;;;;;;;;;5062275;28;20036;-64
2022/02/15 02:25:55;;;;;;;19.33;5.25;;;;;;;;;;5057630;28;20040;-62
2022/02/15 02:28:21;;;;;;;13.52;4.82;;;;;;;;;;5061203;28;20037;-63
2022/02/15 02:30:47;;;;;;;18.13;4.70;;;;;;;;;;5061686;28;20492;-64
2022/02/15 02:33:13;;;;;;;17.75;5.95;;;;;;;;;;5063035;28;20028;-62
2022/02/15 02:35:39;;;;;;;14.20;5.78;;;;;;;;;;5059421;28;20041;-63
2022/02/15 02:38:05;;;;;;;11.70;5.30;;;;;;;;;;5061490;28;20025;-64
2022/02/15 02:40:31;;;;;;;12.88;5.75;;;;;;;;;;5062118;28;20037;-63
2022/02/15 02:42:57;;;;;;;20.92;7.90;;;;;;;;;;5062199;28;20068;-63
2022/02/15 02:45:23;;;;;;;20.48;7.00;;;;;;;;;;5060575;28;20040;-63
2022/02/15 02:47:51;;;;;;;22.80;7.18;;;;;;;;;;5063029;28;20063;-63
2022/02/15 02:50:18;;;;;;;20.88;9.05;;;;;;;;;;5061600;28;20033;-62
2022/02/15 02:52:44;;;;;;;23.08;9.20;;;;;;;;;;5062628;28;20088;-63
2022/02/15 02:55:10;;;;;;;23.75;9.85;;;;;;;;;;5058142;28;20988;-64
2022/02/15 02:57:37;;;;;;;24.65;10.57;;;;;;;;;;5059864;28;20040;-63
2022/02/15 03:00:07;;;;;;;25.85;11.35;;;;;;;;;;5060446;28;20033;-64
2022/02/15 03:02:34;;;;;;;21.23;10.77;;;;;;;;;;5060979;28;20044;-63
2022/02/15 03:05:00;;;;;;;24.70;11.40;;;;;;;;;;5060848;28;20032;-62
2022/02/15 03:07:26;;;;;;;22.85;11.50;;;;;;;;;;5061874;28;20036;-63
2022/02/15 03:09:52;;;;;;;31.58;13.65;;;;;;;;;;5062245;28;20028;-63
2022/02/15 03:12:18;;;;;;;29.08;13.00;;;;;;;;;;5062126;28;20063;-62
2022/02/15 03:14:44;;;;;;;26.65;13.50;;;;;;;;;;5059528;28;20043;-62
2022/02/15 03:17:11;;;;;;;29.88;13.13;;;;;;;;;;5061194;28;20033;-64
2022/02/15 03:19:37;;;;;;;28.17;12.65;;;;;;;;;;5061205;28;20070;-63
2022/02/15 03:22:03;;;;;;;30.52;14.00;;;;;;;;;;5062007;28;20524;-63
2022/02/15 03:24:29;;;;;;;30.08;13.35;;;;;;;;;;5059472;28;20109;-63
2022/02/15 03:26:55;;;;;;;30.88;13.75;;;;;;;;;;5061568;28;20048;-63
2022/02/15 03:29:21;;;;;;;31.58;13.77;;;;;;;;;;5062079;28;20064;-63
2022/02/15 03:31:47;;;;;;;31.52;12.65;;;;;;;;;;5061354;28;20540;-63
2022/02/15 03:34:13;;;;;;;27.88;13.05;;;;;;;;;;5060418;28;20085;-62
2022/02/15 03:36:39;;;;;;;27.33;13.35;;;;;;;;;;5061083;28;20052;-64
2022/02/15 03:39:08;;;;;;;24.75;12.32;;;;;;;;;;5061872;28;20033;-63
2022/02/15 03:44:19;;;;;;;24.33;12.32;;;;;;;;;;5052318;28;20066;-64
2022/02/15 03:46:45;;;;;;;22.65;11.48;;;;;;;;;;5059785;28;20532;-63
2022/02/15 03:49:12;;;;;;;;;;;;;;;;;;5062360;28;20036;-63
2022/02/15 03:51:41;;;;;;;26.50;11.65;;;;;;;;;;5062496;28;19916;-63
2022/02/15 03:54:07;;;;;;;27.17;11.77;;;;;;;;;;5064997;28;20044;-64
2022/02/15 03:56:33;;;;;;;24.20;11.82;;;;;;;;;;5064412;28;20078;-63
2022/02/15 03:59:00;;;;;;;22.90;11.63;;;;;;;;;;5065352;28;20094;-63
2022/02/15 04:01:26;;;;;;;21.25;11.18;;;;;;;;;;5064066;28;20040;-63
2022/02/15 04:03:52;;;;;;;21.60;10.98;;;;;;;;;;5063511;28;20043;-63
2022/02/15 04:06:18;;;;;;;26.80;11.52;;;;;;;;;;5061814;28;20032;-63
2022/02/15 04:08:44;;;;;;;21.52;10.60;;;;;;;;;;5064569;28;20040;-63
2022/02/15 04:11:12;;;;;;;21.38;10.85;;;;;;;;;;5064424;28;20103;-63
2022/02/15 04:13:38;;;;;;;25.92;10.45;;;;;;;;;;5065009;28;20075;-63
2022/02/15 04:16:04;;;;;;;25.20;10.57;;;;;;;;;;5064023;28;20040;-63
2022/02/15 04:18:30;;;;;;;22.63;10.50;;;;;;;;;;5064815;28;20040;-64
2022/02/15 04:20:56;;;;;;;23.30;11.07;;;;;;;;;;5064808;28;20051;-63
2022/02/15 04:23:22;;;;;;;18.92;9.57;;;;;;;;;;5065237;28;20055;-64
2022/02/15 04:25:48;;;;;;;26.02;12.45;;;;;;;;;;5061303;28;20114;-63
2022/02/15 04:28:14;;;;;;;27.92;11.00;;;;;;;;;;5065931;28;20530;-64
2022/02/15 04:30:40;;;;;;;28.65;12.02;;;;;;;;;;5063417;28;20036;-64
2022/02/15 04:33:07;;;;;;;28.23;11.18;;;;;;;;;;5064261;28;20064;-64
2022/02/15 04:35:33;;;;;;;28.33;13.40;;;;;;;;;;5063333;28;20028;-63
2022/02/15 04:37:59;;;;;;;27.20;12.50;;;;;;;;;;5065229;28;20459;-64
2022/02/15 04:40:25;;;;;;;25.55;12.60;;;;;;;;;;5064080;28;20033;-63
2022/02/15 04:42:51;;;;;;;;;;;;;;;;;;5064851;28;20029;-64
2022/02/15 04:45:17;;;;;;;34.22;13.63;;;;;;;;;;5061916;28;19916;-62
2022/02/15 04:47:43;;;;;;;;;;;;;;;;;;5064636;28;20094;-62
2022/02/15 04:50:09;;;;;;;16.93;8.63;;;;;;;;;;5055852;28;20003;-62
2022/02/15 04:52:35;;;;;;;26.02;12.80;;;;;;;;;;5065312;28;20045;-62
2022/02/15 04:55:01;;;;;;;26.58;12.40;;;;;;;;;;5060824;28;20503;-62
2022/02/15 04:57:27;;;;;;;24.88;12.70;;;;;;;;;;5064211;28;20128;-62
2022/02/15 04:59:54;;;;;;;28.45;12.70;;;;;;;;;;5064383;28;20543;-63
2022/02/15 05:02:20;;;;;;;29.30;12.73;;;;;;;;;;5062860;28;20075;-62
2022/02/15 05:04:49;;;;;;;30.38;13.65;;;;;;;;;;5061150;28;20060;-62
2022/02/15 05:07:15;;;;;;;30.80;14.15;;;;;;;;;;5064057;28;20055;-63
2022/02/15 05:09:42;;;;;;;27.08;14.32;;;;;;;;;;5064280;28;20135;-63
2022/02/15 05:12:08;;;;;;;32.15;14.63;;;;;;;;;;5064263;28;20542;-63
2022/02/15 05:14:34;;;;;;;32.78;14.00;;;;;;;;;;5065201;28;20045;-63
2022/02/15 05:17:00;;;;;;;34.90;14.80;;;;;;;;;;5063748;28;20041;-63
2022/02/15 05:19:27;;;;;;;34.08;14.25;;;;;;;;;;5064093;28;20040;-64
2022/02/15 05:21:53;;;;;;;29.00;13.82;;;;;;;;;;5063198;28;20045;-64
2022/02/15 05:24:19;;;;;;;26.85;13.98;;;;;;;;;;5064605;28;20045;-61
2022/02/15 05:26:45;;;;;;;32.30;13.68;;;;;;;;;;5064061;28;20040;-62
2022/02/15 05:29:11;;;;;;;23.40;12.45;;;;;;;;;;5065326;28;20024;-63
2022/02/15 05:31:37;;;;;;;29.58;14.45;;;;;;;;;;5060722;28;20037;-62
2022/02/15 05:34:03;;;;;;;26.05;12.88;;;;;;;;;;5063239;28;20055;-62
2022/02/15 05:36:30;;;;;;;26.50;14.35;;;;;;;;;;5061660;28;20040;-62
2022/02/15 05:38:57;;;;;;;26.77;14.07;;;;;;;;;;5061701;28;20113;-61
2022/02/15 05:41:23;;;;;;;27.10;12.98;;;;;;;;;;5063496;28;20043;-62
2022/02/15 05:43:49;;;;;;;25.75;12.23;;;;;;;;;;5062645;28;20041;-62
2022/02/15 05:46:15;;;;;;;22.67;12.57;;;;;;;;;;5061481;28;20048;-62
2022/02/15 05:48:41;;;;;;;20.95;11.15;;;;;;;;;;5063764;28;20404;-62
2022/02/15 05:51:07;;;;;;;24.88;11.35;;;;;;;;;;5063187;28;20541;-63
2022/02/15 05:53:33;;;;;;;23.00;10.75;;;;;;;;;;5061339;28;20043;-63
2022/02/15 05:56:02;;;;;;;19.95;11.45;;;;;;;;;;5059361;28;20040;-62
2022/02/15 05:58:29;;;;;;;23.02;11.18;;;;;;;;;;5063887;28;20044;-63
2022/02/15 06:00:56;;;;;;;17.02;9.82;;;;;;;;;;5060232;28;20436;-64
2022/02/15 06:06:06;;;;;;;21.08;10.20;;;;;;;;;;5058507;28;20044;-62
2022/02/15 06:08:34;;;;;;;22.75;9.70;;;;;;;;;;5062977;28;20044;-63
2022/02/15 06:11:00;;;;;;;16.98;9.63;;;;;;;;;;5063449;28;20044;-62
2022/02/15 06:13:26;;;;;;;23.40;11.30;;;;;;;;;;5062688;28;20458;-61
2022/02/15 06:15:52;;;;;;;17.05;9.18;;;;;;;;;;5060278;28;20045;-63
2022/02/15 06:18:18;;;;;;;17.92;8.40;;;;;;;;;;5063426;28;20056;-62
2022/02/15 06:20:44;;;;;;;18.83;8.95;;;;;;;;;;5062672;28;20535;-63
2022/02/15 06:23:10;;;;;;;16.02;9.00;;;;;;;;;;5063437;28;20173;-62
2022/02/15 06:25:36;;;;;;;21.13;9.45;;;;;;;;;;5058398;28;20110;-62
2022/02/15 06:28:02;;;;;;;16.00;8.55;;;;;;;;;;5059653;28;20037;-63
2022/02/15 06:30:28;;;;;;;26.08;9.63;;;;;;;;;;5059219;28;20277;-62
2022/02/15 06:32:55;;;;;;;23.67;9.57;;;;;;;;;;5062659;28;20517;-64
2022/02/15 06:35:21;;;;;;;16.40;9.90;;;;;;;;;;5054968;28;20037;-62
2022/02/15 06:37:48;;;;;;;21.10;11.35;;;;;;;;;;5061302;28;20543;-63
2022/02/15 06:40:15;;;;;;;19.55;9.60;;;;;;;;;;5059731;28;20048;-63
2022/02/15 06:42:42;;;;;;;18.52;9.32;;;;;;;;;;5061091;28;20021;-64
2022/02/15 06:45:08;;;;;;;19.65;10.30;;;;;;;;;;5053781;28;20117;-63
2022/02/15 06:47:34;;;;;;;20.95;10.35;;;;;;;;;;5057686;28;20052;-65
2022/02/15 06:50:00;;;;;;;19.20;9.52;;;;;;;;;;5058340;28;20046;-64
2022/02/15 06:52:27;;;;;;;20.40;10.57;;;;;;;;;;5064009;28;20123;-63
2022/02/15 06:54:53;;;;;;;20.90;9.80;;;;;;;;;;5058612;28;20541;-65
2022/02/15 06:57:19;;;;;;;22.17;9.93;;;;;;;;;;5062176;28;20063;-62
2022/02/15 06:59:45;;;;;;;20.15;9.05;;;;;;;;;;5057870;28;20032;-63
2022/02/15 07:02:12;;;;;;;15.48;9.27;;;;;;;;;;5060843;28;20052;-64
2022/02/15 07:04:38;;;;;;;17.13;8.85;;;;;;;;;;5060266;28;20044;-63
2022/02/15 07:07:04;;;;;;;20.38;9.88;;;;;;;;;;5059226;28;20044;-63
2022/02/15 07:09:31;;;;;;;14.40;9.07;;;;;;;;;;5063206;28;20052;-63
2022/02/15 07:11:57;;;;;;;14.90;8.70;;;;;;;;;;5059231;28;20047;-63
2022/02/15 07:14:23;;;;;;;19.48;10.25;;;;;;;;;;5060680;28;20127;-63
2022/02/15 07:16:49;;;;;;;19.55;10.30;;;;;;;;;;5060146;28;20469;-63
2022/02/15 07:19:15;;;;;;;17.38;9.18;;;;;;;;;;5061429;28;20657;-64
2022/02/15 07:21:43;;;;;;;22.52;11.40;;;;;;;;;;5062600;28;20044;-63
2022/02/15 07:24:10;;;;;;;15.48;9.02;;;;;;;;;;5060473;28;20062;-63
2022/02/15 07:26:36;;;;;;;15.40;9.15;;;;;;;;;;5059230;28;20140;-63
2022/02/15 07:29:02;;;;;;;16.20;9.02;;;;;;;;;;5066064;28;20119;-63
2022/02/15 07:31:28;;;;;;;16.00;9.30;;;;;;;;;;5065537;28;20041;-63
2022/02/15 07:33:54;;;;;;;15.25;9.15;;;;;;;;;;5064407;28;20679;-63
2022/02/15 07:36:20;;;;;;;16.70;9.50;;;;;;;;;;5062131;28;20033;-63
2022/02/15 07:38:46;;;;;;;21.23;9.55;;;;;;;;;;5065683;28;20043;-63
2022/02/15 07:41:12;;;;;;;17.52;9.85;;;;;;;;;;5066224;28;20684;-63
2022/02/15 07:43:39;;;;;;;20.35;10.10;;;;;;;;;;5064978;28;20120;-63
2022/02/15 07:46:06;;;;;;;16.27;9.10;;;;;;;;;;5063597;28;20096;-62
2022/02/15 07:48:34;;;;;;;19.10;9.60;;;;;;;;;;5065920;28;20044;-63
2022/02/15 07:51:01;;;;;;;20.35;9.80;;;;;;;;;;5066204;28;20052;-63
2022/02/15 07:53:27;;;;;;;19.85;10.48;;;;;;;;;;5065565;28;20044;-63
2022/02/15 07:55:53;;;;;;;15.07;9.60;;;;;;;;;;5062553;28;20040;-63
2022/02/15 07:58:19;;;;;;;16.08;9.23;;;;;;;;;;5061799;28;20392;-62
2022/02/15 08:00:45;;;;;;;17.35;9.68;;;;;;;;;;5061265;28;20032;-63
2022/02/15 08:03:11;;;;;;;16.58;8.38;;;;;;;;;;5065408;28;20502;-63
2022/02/15 08:05:41;;;;;;;17.80;10.18;;;;;;;;;;5064016;28;20071;-64
2022/02/15 08:08:07;;;;;;;17.75;9.43;;;;;;;;;;5065879;28;20060;-64
2022/02/15 08:10:33;;;;;;;14.30;8.30;;;;;;;;;;5067076;28;20328;-64
2022/02/15 08:13:01;;;;;;;14.70;9.32;;;;;;;;;;5064627;28;20040;-63
2022/02/15 08:15:30;;;;;;;16.15;8.55;;;;;;;;;;5064040;28;20063;-64
2022/02/15 08:17:57;;;;;;;12.23;7.90;;;;;;;;;;5065044;28;20531;-64
2022/02/15 08:20:23;;;;;;;13.60;7.97;;;;;;;;;;5064282;28;20123;-63
2022/02/15 08:22:50;;;;;;;14.05;8.90;;;;;;;;;;5064333;28;20035;-63
2022/02/15 08:25:16;;;;;;;14.75;8.90;;;;;;;;;;5059160;28;20036;-63
2022/02/15 08:27:42;;;;;;;16.45;8.80;;;;;;;;;;5063650;28;20044;-64
2022/02/15 08:30:09;;;;;;;16.20;8.90;;;;;;;;;;5062691;28;20036;-63
2022/02/15 08:32:35;;;;;;;16.67;8.55;;;;;;;;;;5064829;28;20668;-63
2022/02/15 08:35:01;;;;;;;13.07;8.30;;;;;;;;;;5063622;28;20036;-63
2022/02/15 08:37:27;;;;;;;12.43;8.00;;;;;;;;;;5065141;28;20457;-64
2022/02/15 08:39:53;;;;;;;14.52;7.63;;;;;;;;;;5064491;28;20036;-63
2022/02/15 08:42:19;;;;;;;17.33;8.00;;;;;;;;;;5065004;28;20028;-64
2022/02/15 08:44:48;;;;;;;12.93;8.13;;;;;;;;;;5062050;28;20463;-63
2022/02/15 08:47:14;;;;;;;12.18;7.18;;;;;;;;;;5064214;28;20044;-63
2022/02/15 08:49:40;;;;;;;15.35;8.00;;;;;;;;;;5065185;28;20044;-63
2022/02/15 08:52:06;;;;;;;13.25;8.18;;;;;;;;;;5064695;28;20036;-64
2022/02/15 08:54:32;;;;;;;13.77;6.70;;;;;;;;;;5061155;28;20099;-63
2022/02/15 08:56:58;;;;;;;11.85;7.38;;;;;;;;;;5062791;28;20040;-63
2022/02/15 08:59:25;;;;;;;14.60;8.10;;;;;;;;;;5061201;28;20040;-64
2022/02/15 09:01:51;;;;;;;12.57;8.07;;;;;;;;;;5063556;28;20043;-63
2022/02/15 09:04:18;;;;;;;12.60;7.38;;;;;;;;;;5057039;28;20519;-63
2022/02/15 09:06:44;;;;;;;16.55;8.05;;;;;;;;;;5063966;28;20097;-64
2022/02/15 09:09:12;;;;;;;17.70;7.63;;;;;;;;;;5063463;28;20043;-64
2022/02/15 09:11:38;;;;;;;13.23;7.93;;;;;;;;;;5064437;28;20045;-63
2022/02/15 09:14:05;;;;;;;15.35;7.32;;;;;;;;;;5062643;28;20029;-64
2022/02/15 09:16:31;;;;;;;10.98;7.28;;;;;;;;;;5059643;28;20040;-62
2022/02/15 09:18:57;;;;;;;11.60;6.97;;;;;;;;;;5063646;28;20040;-62
2022/02/15 09:21:23;;;;;;;11.90;6.88;;;;;;;;;;5064042;28;20047;-63
2022/02/15 09:23:49;;;;;;;11.93;7.72;;;;;;;;;;5062472;28;20153;-63
2022/02/15 09:26:15;;;;;;;15.40;7.88;;;;;;;;;;5060667;28;20460;-62
2022/02/15 09:28:42;;;;;;;10.85;7.50;;;;;;;;;;5062205;28;20566;-62
2022/02/15 09:31:08;;;;;;;11.55;6.60;;;;;;;;;;5060733;28;20040;-62
2022/02/15 09:33:34;;;;;;;14.55;7.88;;;;;;;;;;5063331;28;20044;-62
2022/02/15 09:36:00;;;;;;;12.85;6.70;;;;;;;;;;5062027;28;20068;-63
2022/02/15 09:38:26;;;;;;;8.52;5.50;;;;;;;;;;5063584;28;20044;-63
2022/02/15 09:40:52;;;;;;;11.60;5.90;;;;;;;;;;5063931;28;20488;-62
2022/02/15 09:43:18;;;;;;;;;;;;;;;;;;5064296;28;20032;-62
2022/02/15 09:45:46;;;;;;;9.57;6.25;;;;;;;;;;5063347;28;20440;-62
2022/02/15 09:48:13;;;;;;;10.32;4.70;;;;;;;;;;5063662;28;20032;-63
2022/02/15 09:50:40;;;;;;;8.35;5.07;;;;;;;;;;5062813;28;20094;-63
2022/02/15 09:53:07;;;;;;;8.38;4.32;;;;;;;;;;5063505;28;20036;-63
2022/02/15 09:55:33;;;;;;;5.20;3.72;;;;;;;;;;5058433;28;20048;-63
2022/02/15 09:57:59;;;;;;;5.90;4.10;;;;;;;;;;5061287;28;20043;-63
2022/02/15 10:00:25;;;;;;;5.63;3.20;;;;;;;;;;5058900;28;20094;-62
2022/02/15 10:02:51;;;;;;;8.43;4.13;;;;;;;;;;5062197;28;20036;-63
2022/02/15 10:05:18;;;;;;;6.10;3.70;;;;;;;;;;5057709;28;20078;-63
2022/02/15 10:07:48;;;;;;;7.75;4.43;;;;;;;;;;5062896;28;20102;-62
2022/02/15 10:10:14;;;;;;;9.13;4.43;;;;;;;;;;5062365;28;20032;-62
2022/02/15 10:12:41;;;;;;;11.82;4.63;;;;;;;;;;5059493;28;20155;-62
2022/02/15 10:15:10;;;;;;;8.77;4.43;;;;;;;;;;5058677;28;20119;-63
2022/02/15 10:17:37;;;;;;;5.88;4.07;;;;;;;;;;5059451;28;20068;-64
2022/02/15 10:20:03;;;;;;;7.60;4.90;;;;;;;;;;5058350;28;20048;-62
2022/02/15 10:22:29;;;;;;;7.75;5.18;;;;;;;;;;5061407;28;20039;-63
2022/02/15 10:24:58;;;;;;;11.55;4.60;;;;;;;;;;5058570;28;20036;-63
2022/02/15 10:27:28;;;;;;;8.65;5.22;;;;;;;;;;5061616;28;20725;-62
2022/02/15 10:29:55;;;;;;;7.47;4.68;;;;;;;;;;5062766;28;20049;-62
2022/02/15 10:32:22;;;;;;;7.85;4.40;;;;;;;;;;5062620;28;20105;-62
2022/02/15 10:34:53;;;;;;;5.57;3.25;;;;;;;;;;5060660;28;20086;-63
2022/02/15 10:37:20;;;;;;;6.35;3.70;;;;;;;;;;5061241;28;20089;-63
2022/02/15 10:39:54;;;;;;;5.07;3.42;;;;;;;;;;5063315;28;20051;-62
2022/02/15 10:42:21;;;;;;;6.78;3.00;;;;;;;;;;5061200;28;20507;-62
2022/02/15 10:44:51;;;;;;;4.55;3.47;;;;;;;;;;5059715;28;20500;-62
2022/02/15 10:47:17;;;;;;;5.82;3.70;;;;;;;;;;5057421;28;20060;-63
2022/02/15 10:49:43;;;;;;;5.97;3.95;;;;;;;;;;5061221;28;20036;-62
2022/02/15 10:52:10;;;;;;;5.03;3.42;;;;;;;;;;5060664;28;20717;-62
2022/02/15 10:54:37;;;;;;;6.90;3.83;;;;;;;;;;5059579;28;20044;-63
2022/02/15 10:57:03;;;;;;;7.97;4.13;;;;;;;;;;5059905;28;20047;-62
2022/02/15 10:59:33;;;;;;;6.00;4.10;;;;;;;;;;5059344;28;20080;-62
2022/02/15 11:02:00;;;;;;;7.18;4.32;;;;;;;;;;5058267;28;20033;-62
2022/02/15 11:04:28;;;;;;;7.10;3.85;;;;;;;;;;5059305;28;20102;-63
2022/02/15 11:06:54;;;;;;;6.72;4.50;;;;;;;;;;5059066;28;20041;-62
2022/02/15 11:09:23;;;;;;;6.45;3.95;;;;;;;;;;5063011;28;20036;-62
2022/02/15 11:12:07;;;;;;;7.28;4.03;;;;;;;;;;5060811;28;20060;-63
2022/02/15 11:14:36;;;;;;;5.78;4.20;;;;;;;;;;5054224;28;20559;-62
2022/02/15 11:17:02;;;;;;;5.57;3.80;;;;;;;;;;5058656;28;20052;-63
2022/02/15 11:19:37;;;;;;;9.63;4.03;;;;;;;;;;5058406;28;20044;-63
2022/02/15 11:22:09;;;;;;;4.50;3.30;;;;;;;;;;5059856;28;20048;-62
2022/02/15 11:24:40;;;;;;;5.63;3.40;;;;;;;;;;5058454;28;20033;-63
2022/02/15 11:27:14;;;;;;;5.70;3.72;;;;;;;;;;5059322;28;20763;-63
2022/02/15 11:29:49;;;;;;;7.43;3.47;;;;;;;;;;5062573;28;20060;-63
2022/02/15 11:32:25;;;;;;;4.65;3.60;;;;;;;;;;5061081;28;20079;-62
2022/02/15 11:34:51;;;;;;;5.80;3.30;;;;;;;;;;5059181;28;20033;-59
2022/02/15 11:37:20;;;;;;;5.75;2.88;;;;;;;;;;5060836;28;20045;-63
2022/02/15 11:39:56;;;;;;;7.00;3.10;;;;;;;;;;5062504;28;20652;-63
2022/02/15 11:42:22;;;;;;;4.50;3.50;;;;;;;;;;5060209;28;20043;-62
2022/02/15 11:44:48;;;;;;;;;;;;;;;;;;5062588;28;20033;-62
2022/02/15 11:47:19;;;;;;;10.87;3.90;;;;;;;;;;5062231;28;20312;-62
2022/02/15 11:49:49;;;;;;;6.65;4.15;;;;;;;;;;5061782;28;20072;-65
2022/02/15 11:52:15;;;;;;;9.18;4.63;;;;;;;;;;5063403;28;20076;-71
2022/02/15 11:54:41;;;;;;;7.30;4.78;;;;;;;;;;5060570;28;20066;-63
2022/02/15 11:57:08;;;;;;;11.43;5.60;;;;;;;;;;5062931;28;20032;-62
2022/02/15 11:59:34;;;;;;;8.52;5.30;;;;;;;;;;5063268;28;20446;-61
2022/02/15 12:02:01;;;;;;;6.60;5.10;;;;;;;;;;5061051;28;20447;-63
2022/02/15 12:04:28;;;;;;;11.73;5.55;;;;;;;;;;5060161;28;20047;-63
2022/02/15 12:06:55;;;;;;;10.77;6.90;;;;;;;;;;5062702;28;20043;-64
2022/02/15 12:09:28;;;;;;;10.90;6.13;;;;;;;;;;5063029;28;20463;-63
2022/02/15 12:11:55;;;;;;;9.63;6.30;;;;;;;;;;5061133;28;20036;-62
2022/02/15 12:14:23;;;;;;;11.10;5.63;;;;;;;;;;5062430;28;20037;-62
2022/02/15 12:16:53;;;;;;;10.80;6.13;;;;;;;;;;5064395;28;20186;-63
2022/02/15 12:19:21;;;;;;;11.32;6.20;;;;;;;;;;5053434;28;20036;-62
2022/02/15 12:21:47;;;;;;;11.52;5.85;;;;;;;;;;5062319;28;20120;-61
2022/02/15 12:24:14;;;;;;;8.80;6.05;;;;;;;;;;5061182;28;20063;-61
2022/02/15 12:26:41;;;;;;;8.82;5.10;;;;;;;;;;5062610;28;20049;-61
2022/02/15 12:29:08;;;;;;;10.25;5.47;;;;;;;;;;5062617;28;20484;-61
2022/02/15 12:31:34;;;;;;;10.90;5.22;;;;;;;;;;5061618;28;20041;-62
2022/02/15 12:34:01;;;;;;;6.47;4.30;;;;;;;;;;5063042;28;20036;-62
2022/02/15 12:36:28;;;;;;;6.90;4.25;;;;;;;;;;5065410;28;20574;-62
2022/02/15 12:38:54;;;;;;;5.25;3.83;;;;;;;;;;5063820;28;20036;-62
2022/02/15 12:41:22;;;;;;;5.85;3.80;;;;;;;;;;5063956;28;20112;-61
2022/02/15 12:43:55;;;;;;;7.05;4.15;;;;;;;;;;5062942;28;20108;-62
2022/02/15 12:46:21;;;;;;;5.25;4.35;;;;;;;;;;5063041;28;20535;-62
2022/02/15 12:48:47;;;;;;;;;;;;;;;;;;5065836;28;20072;-62
2022/02/15 12:51:13;;;;;;;10.17;5.07;;;;;;;;;;5064564;28;19948;-62
2022/02/15 12:53:38;;;;;;;;;;;;;;;;;;5064702;28;20043;-61
2022/02/15 12:56:05;;;;;;;9.15;5.60;;;;;;;;;;5063631;28;19966;-62
2022/02/15 12:58:32;;;;;;;12.55;5.47;;;;;;;;;;5065272;28;20191;-62
2022/02/15 13:00:59;;;;;;;12.90;6.35;;;;;;;;;;5064815;28;20101;-62
2022/02/15 13:03:25;;;;;;;7.97;6.10;;;;;;;;;;5065055;28;20221;-63
2022/02/15 13:05:51;;;;;;;8.73;5.68;;;;;;;;;;5060940;28;20124;-63
2022/02/15 13:08:18;;;;;;;12.35;6.40;;;;;;;;;;5064017;28;20328;-60
2022/02/15 13:10:57;;;;;;;9.98;6.00;;;;;;;;;;5064142;28;20044;-63
2022/02/15 13:13:27;;;;;;;12.25;6.20;;;;;;;;;;5059480;28;20049;-62
2022/02/15 13:15:54;;;;;;;10.65;6.00;;;;;;;;;;5061745;28;20544;-62
2022/02/15 13:18:20;;;;;;;11.57;6.30;;;;;;;;;;5062398;28;20089;-63
2022/02/15 13:20:50;;;;;;;11.15;6.00;;;;;;;;;;5060723;28;20044;-63
2022/02/15 13:23:16;;;;;;;10.13;6.05;;;;;;;;;;5057715;28;20120;-62
2022/02/15 13:25:50;;;;;;;8.63;5.63;;;;;;;;;;5061154;28;20040;-63
2022/02/15 13:28:17;;;;;;;10.25;6.03;;;;;;;;;;5057104;28;20040;-62
2022/02/15 13:30:44;;;;;;;8.38;5.32;;;;;;;;;;5064008;28;20040;-63
2022/02/15 13:33:11;;;;;;;13.20;6.07;;;;;;;;;;5064014;28;20119;-63
2022/02/15 13:35:39;;;;;;;11.57;6.45;;;;;;;;;;5060008;28;20041;-62
2022/02/15 13:38:06;;;;;;;10.57;5.78;;;;;;;;;;5064035;28;20145;-62
2022/02/15 13:40:32;;;;;;;9.70;5.47;;;;;;;;;;5063878;28;20425;-63
2022/02/15 13:42:58;;;;;;;8.77;5.28;;;;;;;;;;5066057;28;20074;-63
2022/02/15 13:45:25;;;;;;;12.60;5.70;;;;;;;;;;5060759;28;20036;-66
2022/02/15 13:47:51;;;;;;;7.90;4.53;;;;;;;;;;5063470;28;20056;-63
2022/02/15 13:50:17;;;;;;;8.95;5.00;;;;;;;;;;5063877;28;20036;-63
2022/02/15 13:52:43;;;;;;;7.78;5.47;;;;;;;;;;5063882;28;20036;-69
2022/02/15 13:55:10;;;;;;;6.28;4.47;;;;;;;;;;5061071;28;20041;-63
2022/02/15 13:57:37;;;;;;;6.35;4.43;;;;;;;;;;5063305;28;20049;-61
2022/02/15 14:00:05;;;;;;;11.80;5.13;;;;;;;;;;5062742;28;20172;-62
2022/02/15 14:02:31;;;;;;;8.38;4.38;;;;;;;;;;5061868;28;20037;-61
2022/02/15 14:04:58;;;;;;;7.43;4.38;;;;;;;;;;5060169;28;20036;-63
2022/02/15 14:07:25;;;;;;;6.35;4.63;;;;;;;;;;5060611;28;20041;-63
2022/02/15 14:09:52;;;;;;;8.93;4.40;;;;;;;;;;5062412;28;20036;-64
2022/02/15 14:12:19;;;;;;;5.20;3.67;;;;;;;;;;5061149;28;20134;-63
2022/02/15 14:14:48;;;;;;;7.72;4.78;;;;;;;;;;5061773;28;20044;-65
2022/02/15 14:19:59;;;;;;;11.68;4.53;;;;;;;;;;5062031;28;20048;-62
2022/02/15 14:22:25;;;;;;;8.20;4.25;;;;;;;;;;5060698;28;20051;-63
2022/02/15 14:24:51;;;;;;;9.68;4.15;;;;;;;;;;5058617;28;20056;-63
2022/02/15 14:27:18;;;;;;;9.02;4.13;;;;;;;;;;5062273;28;20772;-63
2022/02/15 14:29:44;;;;;;;8.02;3.88;;;;;;;;;;5062332;28;20055;-63
2022/02/15 14:32:10;;;;;;;10.88;3.90;;;;;;;;;;5059737;28;20123;-63
2022/02/15 14:34:36;;;;;;;10.52;4.15;;;;;;;;;;5061180;28;20474;-62
2022/02/15 14:37:02;;;;;;;8.90;3.90;;;;;;;;;;5060880;28;20452;-63
2022/02/15 14:39:28;;;;;;;7.10;3.65;;;;;;;;;;5063184;28;20762;-62